Time;durP1;ratioP1;P1;durP2;ratioP2;P2;SDS_P1;SDS_P2;PMS_P1;PMS_P2;Temp;Humidity;BMP_temperature;BMP_pressure;BME280_temperature;BME280_humidity;BME280_pressure;Samples;Min_cycle;Max_cycle;Signal;HPM_P1;HPM_P2
2023/04/13 00:00:32;;;;;;;1.80;1.67;;;;;;;6.88;56.49;63654.81;5051080;28;20642;-56
2023/04/13 00:02:59;;;;;;;4.00;1.80;;;;;;;6.51;58.61;63612.53;5051079;28;20228;-55
2023/04/13 00:05:24;;;;;;;3.47;2.17;;;;;;;6.67;58.31;63631.91;5051106;28;20209;-60
2023/04/13 00:07:50;;;;;;;3.80;2.07;;;;;;;6.44;60.58;63604.91;5050907;28;20201;-55
2023/04/13 00:10:17;;;;;;;4.23;2.43;;;;;;;6.63;60.26;63630.06;5032960;28;20189;-56
2023/04/13 00:12:46;;;;;;;2.97;1.90;;;;;;;6.53;58.94;63612.22;5061511;22;20197;-56
2023/04/13 00:15:14;;;;;;;2.17;1.13;;;;;;;6.42;57.31;63605.22;5032014;28;20217;-54
2023/04/13 00:17:44;;;;;;;2.60;1.60;;;;;;;6.47;57.47;63608.16;5051012;28;20193;-55
2023/04/13 00:20:14;;;;;;;3.73;1.27;;;;;;;6.48;58.18;63609.28;5050815;28;20241;-56
2023/04/13 00:22:41;;;;;;;2.90;1.40;;;;;;;6.51;57.99;63612.53;5051018;28;20220;-55
2023/04/13 00:25:07;;;;;;;3.30;1.60;;;;;;;6.65;56.22;63625.28;5050765;28;20200;-56
2023/04/13 00:27:33;;;;;;;2.40;1.40;;;;;;;6.55;55.55;63618.84;5050422;28;20229;-55
2023/04/13 00:29:58;;;;;;;3.00;1.10;;;;;;;6.54;56.67;63613.31;5050717;28;20698;-57
2023/04/13 00:32:25;;;;;;;3.60;1.03;;;;;;;6.79;56.42;63642.50;5050715;28;20288;-56
2023/04/13 00:34:51;;;;;;;1.67;1.33;;;;;;;6.68;57.39;63630.53;5050580;28;20688;-57
2023/04/13 00:37:18;;;;;;;1.43;1.20;;;;;;;6.71;57.83;63631.81;5050392;28;20303;-54
2023/04/13 00:39:45;;;;;;;4.47;2.17;;;;;;;6.55;57.86;63618.84;5050496;28;20366;-55
2023/04/13 00:42:11;;;;;;;4.30;2.07;;;;;;;6.19;59.77;63577.66;5050501;28;20195;-54
2023/04/13 00:44:38;;;;;;;6.53;2.20;;;;;;;6.37;60.04;63599.78;5050355;28;20243;-56
2023/04/13 00:47:04;;;;;;;2.93;2.10;;;;;;;6.33;60.31;63592.91;5050358;28;20331;-55
2023/04/13 00:49:34;;;;;;;4.70;2.30;;;;;;;6.24;60.95;63583.09;5050510;28;20748;-55
2023/04/13 00:52:03;;;;;;;5.07;2.93;;;;;;;6.51;60.16;63612.53;5050319;28;20339;-57
2023/04/13 00:54:31;;;;;;;6.13;3.10;;;;;;;6.42;60.60;63602.19;5050463;28;20213;-57
2023/04/13 00:56:57;;;;;;;5.27;2.50;;;;;;;6.39;61.22;63601.94;5050336;28;20197;-57
2023/04/13 00:59:26;;;;;;;4.50;2.23;;;;;;;6.27;60.52;63588.88;5050291;28;20220;-58
2023/04/13 01:01:55;;;;;;;2.67;1.50;;;;;;;6.30;57.45;63591.59;5050205;28;20685;-58
2023/04/13 01:04:26;;;;;;;4.73;1.73;;;;;;;5.98;58.34;63556.75;5050054;28;20217;-57
2023/04/13 01:07:07;;;;;;;1.20;0.93;;;;;;;5.88;57.25;63543.88;5050180;28;20239;-59
2023/04/13 01:10:09;;;;;;;1.30;1.00;;;;;;;6.12;55.41;63570.03;5050247;28;20213;-60
2023/04/13 01:12:45;;;;;;;3.00;1.40;;;;;;;6.18;55.57;63574.06;5049612;28;20209;-59
2023/04/13 01:15:13;;;;;;;1.57;1.10;;;;;;;6.27;55.44;63588.88;5050101;28;20208;-59
2023/04/13 01:17:42;;;;;;;1.83;1.20;;;;;;;6.21;55.67;63579.84;5050089;28;20550;-56
2023/04/13 01:20:10;;;;;;;1.90;1.17;;;;;;;6.24;57.92;63583.09;5050115;28;20219;-57
2023/04/13 01:22:44;;;;;;;1.70;1.20;;;;;;;6.32;56.57;63591.81;5050144;28;20221;-57
2023/04/13 01:25:21;;;;;;;4.13;1.27;;;;;;;6.52;55.27;63618.63;5050121;28;20185;-56
2023/04/13 01:27:54;;;;;;;2.17;1.30;;;;;;;6.30;57.93;63591.59;5050071;28;20209;-60
2023/04/13 01:30:22;;;;;;;1.53;1.00;;;;;;;6.23;58.22;63584.50;5050026;28;20194;-59
2023/04/13 01:32:51;;;;;;;2.40;1.37;;;;;;;6.41;57.75;63601.63;5032043;28;20339;-56
2023/04/13 01:35:24;;;;;;;3.30;1.33;;;;;;;6.38;57.16;63598.34;5049951;28;20197;-56
2023/04/13 01:37:58;;;;;;;1.47;1.20;;;;;;;6.41;57.37;63601.63;5049817;28;20197;-56
2023/04/13 01:40:25;;;;;;;4.73;2.20;;;;;;;6.49;57.11;63610.34;5049805;28;20194;-59
2023/04/13 01:42:51;;;;;;;1.47;1.10;;;;;;;6.26;57.88;63587.78;5049929;28;20214;-58
2023/04/13 01:45:24;;;;;;;1.93;1.33;;;;;;;6.23;58.07;63584.50;5049522;28;20673;-58
2023/04/13 01:48:04;;;;;;;3.13;1.50;;;;;;;6.23;56.97;63582.00;5049871;28;20277;-58
2023/04/13 01:50:53;;;;;;;2.63;1.77;;;;;;;6.27;57.42;63585.81;5051889;28;20239;-58
2023/04/13 01:53:29;;;;;;;2.13;1.63;;;;;;;6.23;57.37;63582.00;5053032;28;20205;-58
2023/04/13 01:55:55;;;;;;;1.87;1.53;;;;;;;6.15;56.58;63572.75;5053024;28;20181;-55
2023/04/13 01:58:26;;;;;;;2.87;1.67;;;;;;;5.97;56.66;63556.19;5053292;28;20224;-58
2023/04/13 02:00:54;;;;;;;2.73;1.30;;;;;;;5.89;56.32;63545.53;5052884;28;20654;-57
2023/04/13 02:03:21;;;;;;;10.43;1.40;;;;;;;5.89;56.01;63544.97;5052946;28;20295;-58
2023/04/13 02:05:47;;;;;;;1.73;1.20;;;;;;;5.74;56.61;63528.59;5052842;28;20228;-59
2023/04/13 02:08:12;;;;;;;3.07;1.33;;;;;;;5.77;58.21;63531.88;5052848;28;20252;-58
2023/04/13 02:10:38;;;;;;;4.67;1.37;;;;;;;5.85;57.74;63538.13;5052675;28;20684;-56
2023/04/13 02:13:04;;;;;;;2.17;1.40;;;;;;;5.75;59.30;63529.69;5052793;28;20220;-58
2023/04/13 02:15:38;;;;;;;1.97;1.07;;;;;;;5.82;58.79;63540.38;5034735;28;20189;-58
2023/04/13 02:18:04;;;;;;;3.10;1.30;;;;;;;5.92;58.11;63550.72;5034752;28;20212;-59
2023/04/13 02:20:33;;;;;;;3.77;1.20;;;;;;;5.93;57.56;63549.88;5052486;28;20243;-58
2023/04/13 02:23:00;;;;;;;2.53;1.30;;;;;;;6.16;58.11;63574.38;5052733;28;20294;-58
2023/04/13 02:25:26;;;;;;;4.47;1.80;;;;;;;5.99;57.09;63555.88;5052340;28;20189;-58
2023/04/13 02:27:52;;;;;;;5.57;1.50;;;;;;;5.86;56.58;63542.25;5052585;28;20224;-58
2023/04/13 02:30:18;;;;;;;1.57;1.20;;;;;;;5.80;56.30;63535.13;5052283;28;20184;-57
2023/04/13 02:32:48;;;;;;;2.17;1.10;;;;;;;5.84;57.48;63540.06;5052352;28;20253;-58
2023/04/13 02:35:14;;;;;;;3.40;1.50;;;;;;;5.72;57.39;63526.44;5052394;28;20182;-57
2023/04/13 02:37:40;;;;;;;3.07;1.30;;;;;;;5.84;57.56;63537.56;5052287;28;20254;-57
2023/04/13 02:40:09;;;;;;;3.47;1.60;;;;;;;5.92;56.57;63548.78;5052385;28;20186;-59
2023/04/13 02:42:35;;;;;;;3.60;1.60;;;;;;;6.00;55.48;63559.44;5052330;28;20267;-58
2023/04/13 02:45:03;;;;;;;2.73;1.30;;;;;;;5.96;56.10;63552.59;5052285;28;20216;-60
2023/04/13 02:47:29;;;;;;;5.70;1.73;;;;;;;5.84;56.25;63539.53;5034331;28;20220;-59
2023/04/13 02:49:54;;;;;;;2.57;1.40;;;;;;;5.82;56.94;63535.38;5052084;28;20209;-57
2023/04/13 02:52:20;;;;;;;3.57;1.83;;;;;;;5.69;56.26;63523.16;5052155;28;20208;-59
2023/04/13 02:54:46;;;;;;;4.50;1.60;;;;;;;5.80;57.42;63535.69;5051997;28;20737;-59
2023/04/13 02:57:12;;;;;;;1.47;1.00;;;;;;;5.91;56.67;63547.16;5051861;28;20186;-59
2023/04/13 02:59:39;;;;;;;2.00;1.40;;;;;;;5.74;56.81;63531.09;5051878;28;20217;-58
2023/04/13 03:02:05;;;;;;;4.10;1.60;;;;;;;5.74;56.84;63528.59;5051711;28;20189;-58
2023/04/13 03:04:31;;;;;;;2.80;1.40;;;;;;;5.60;56.88;63515.84;5034045;28;20304;-57
2023/04/13 03:06:57;;;;;;;4.17;1.30;;;;;;;5.73;56.50;63525.03;5051608;28;20299;-58
2023/04/13 03:09:23;;;;;;;3.90;1.67;;;;;;;5.77;56.39;63529.38;5051969;28;20238;-60
2023/04/13 03:11:49;;;;;;;1.60;1.30;;;;;;;5.72;58.53;63526.44;5051804;28;20239;-58
2023/04/13 03:14:20;;;;;;;4.70;1.80;;;;;;;5.65;58.69;63524.38;5051929;28;20666;-56
2023/04/13 03:16:45;;;;;;;2.03;1.40;;;;;;;5.84;58.65;63542.00;5051641;28;20193;-55
2023/04/13 03:19:11;;;;;;;2.40;1.80;;;;;;;5.86;57.57;63544.19;5051721;28;20215;-56
2023/04/13 03:21:37;;;;;;;2.07;1.33;;;;;;;5.82;57.91;63535.38;5051498;28;20197;-55
2023/04/13 03:24:04;;;;;;;1.57;1.47;;;;;;;6.01;58.20;63560.53;5051393;28;20213;-56
2023/04/13 03:26:29;;;;;;;2.97;1.67;;;;;;;5.93;57.64;63549.31;5051671;28;20222;-55
2023/04/13 03:28:55;;;;;;;2.93;1.50;;;;;;;5.88;57.43;63546.91;5033662;28;20221;-57
2023/04/13 03:31:21;;;;;;;6.17;1.70;;;;;;;6.00;57.95;63553.91;5051512;28;20272;-60
2023/04/13 03:33:46;;;;;;;2.80;1.70;;;;;;;6.01;58.47;63557.50;5051816;28;20212;-54
2023/04/13 03:36:12;;;;;;;4.87;1.50;;;;;;;6.12;58.75;63572.53;5051365;28;20203;-55
2023/04/13 03:38:37;;;;;;;3.73;2.47;;;;;;;5.72;60.10;63526.44;5051533;28;20248;-56
2023/04/13 03:41:03;;;;;;;3.27;2.03;;;;;;;5.72;60.75;63526.44;5033579;28;20660;-56
2023/04/13 03:43:28;;;;;;;3.97;2.00;;;;;;;5.53;59.48;63508.25;5051295;28;20255;-56
2023/04/13 03:45:54;;;;;;;3.47;1.67;;;;;;;5.78;60.45;63535.47;5051280;28;20221;-56
2023/04/13 03:48:20;;;;;;;5.97;1.93;;;;;;;5.75;60.45;63530.25;5051473;28;20241;-56
2023/04/13 03:50:45;;;;;;;4.40;1.80;;;;;;;5.59;61.06;63514.78;5051148;28;20193;-55
2023/04/13 03:53:11;;;;;;;5.57;2.00;;;;;;;5.77;60.35;63534.94;5051313;28;20248;-57
2023/04/13 03:55:37;;;;;;;4.37;1.80;;;;;;;5.60;60.91;63513.34;5033262;28;20193;-57
2023/04/13 03:58:02;;;;;;;5.43;2.40;;;;;;;5.55;61.40;63507.94;5033147;28;20373;-57
2023/04/13 04:00:28;;;;;;;6.40;2.40;;;;;;;5.89;60.78;63545.53;5051076;28;20276;-57
2023/04/13 04:02:54;;;;;;;5.50;2.70;;;;;;;5.81;61.53;63536.25;5033404;28;20255;-58
2023/04/13 04:05:19;;;;;;;3.97;2.10;;;;;;;5.80;60.89;63540.13;5050943;28;20264;-60
2023/04/13 04:07:45;;;;;;;4.87;2.03;;;;;;;5.90;60.42;63548.56;5050852;28;20221;-59
2023/04/13 04:10:11;;;;;;;9.73;3.00;;;;;;;5.88;60.63;63541.38;5050787;28;20184;-59
2023/04/13 04:12:37;;;;;;;7.30;3.20;;;;;;;6.03;60.38;63560.22;5050239;28;20196;-58
2023/04/13 04:15:04;;;;;;;5.00;2.83;;;;;;;5.87;60.77;63545.84;5032830;28;20250;-59
2023/04/13 04:17:29;;;;;;;7.83;3.40;;;;;;;5.93;61.26;63552.38;5050845;28;20225;-58
2023/04/13 04:19:55;;;;;;;5.60;2.90;;;;;;;6.07;60.58;63567.09;5050692;28;20668;-59
2023/04/13 04:22:21;;;;;;;5.23;2.67;;;;;;;5.92;60.36;63551.28;5050753;28;20533;-59
2023/04/13 04:24:46;;;;;;;9.60;2.70;;;;;;;5.97;60.64;63551.19;5050580;28;20699;-56
2023/04/13 04:27:13;;;;;;;8.30;2.57;;;;;;;5.77;59.55;63531.88;5050513;28;20216;-55
2023/04/13 04:29:38;;;;;;;8.00;3.13;;;;;;;5.86;60.89;63541.69;5050514;28;20275;-55
2023/04/13 04:32:09;;;;;;;6.23;2.70;;;;;;;5.97;58.27;63551.19;5050393;28;20208;-56
2023/04/13 04:34:35;;;;;;;6.80;2.57;;;;;;;5.99;58.47;63555.31;5050352;28;20707;-56
2023/04/13 04:37:04;;;;;;;9.73;2.30;;;;;;;6.15;59.24;63573.28;5050430;28;20180;-54
2023/04/13 04:39:33;;;;;;;7.27;2.87;;;;;;;6.26;59.86;63587.78;5050604;28;20283;-55
2023/04/13 04:42:02;;;;;;;4.70;2.67;;;;;;;6.32;57.72;63596.81;5050514;28;20212;-57
2023/04/13 04:44:31;;;;;;;7.90;3.60;;;;;;;6.36;58.21;63598.66;5032575;28;20217;-55
2023/04/13 04:47:01;;;;;;;4.03;2.50;;;;;;;6.44;55.80;63609.91;5050359;28;20613;-57
2023/04/13 04:49:27;;;;;;;6.00;2.37;;;;;;;6.44;56.26;63604.91;5050182;28;20251;-58
2023/04/13 04:51:54;;;;;;;7.23;2.87;;;;;;;6.38;57.24;63598.34;5050205;28;20213;-58
2023/04/13 04:54:20;;;;;;;4.07;2.40;;;;;;;6.47;57.53;63610.66;5050135;28;20217;-56
2023/04/13 04:56:50;;;;;;;4.70;2.93;;;;;;;6.46;58.49;63604.03;5050388;28;20178;-56
2023/04/13 04:59:19;;;;;;;5.00;3.20;;;;;;;6.48;57.74;63611.78;5050099;28;20209;-55
2023/04/13 05:01:45;;;;;;;6.47;2.90;;;;;;;6.59;57.05;63623.19;5049934;28;20181;-57
2023/04/13 05:04:10;;;;;;;5.80;2.47;;;;;;;6.66;56.60;63630.84;5050230;28;20589;-57
2023/04/13 05:06:40;;;;;;;4.63;2.63;;;;;;;6.71;56.70;63636.84;5050119;28;20229;-58
2023/04/13 05:09:05;;;;;;;2.90;2.10;;;;;;;6.88;56.41;63651.78;5050185;28;20209;-59
2023/04/13 05:11:31;;;;;;;5.93;2.73;;;;;;;6.92;55.46;63658.63;5050028;28;20671;-58
2023/04/13 05:13:57;;;;;;;6.00;2.70;;;;;;;6.95;55.84;63659.41;5049822;28;20288;-58
2023/04/13 05:16:23;;;;;;;6.37;2.43;;;;;;;6.96;56.88;63663.56;5049936;28;20224;-57
2023/04/13 05:18:49;;;;;;;5.37;3.00;;;;;;;7.11;55.52;63677.41;5049765;28;20754;-57
2023/04/13 05:21:15;;;;;;;4.77;2.40;;;;;;;7.02;55.37;63667.03;5049969;28;20173;-58
2023/04/13 05:23:42;;;;;;;8.40;3.53;;;;;;;8.61;98.39;63842.56;5049920;28;20696;-58
2023/04/13 05:26:11;;;;;;;6.90;3.63;;;;;;;9.60;100.00;63947.72;5052746;28;20210;-60
2023/04/13 05:28:40;;;;;;;3.93;2.50;;;;;;;10.64;70.14;64057.91;5053056;28;20213;-59
2023/04/13 05:31:07;;;;;;;6.37;2.97;;;;;;;10.09;57.75;64003.28;5053096;28;20635;-59
2023/04/13 05:33:33;;;;;;;4.63;2.87;;;;;;;9.65;57.80;63950.66;5035040;28;20217;-60
2023/04/13 05:36:00;;;;;;;7.23;3.50;;;;;;;9.34;58.36;63919.28;5052972;28;20536;-60
2023/04/13 05:38:25;;;;;;;5.47;3.13;;;;;;;8.97;61.37;63881.34;5053023;28;20214;-59
2023/04/13 05:40:52;;;;;;;5.30;2.43;;;;;;;8.73;59.93;63855.13;5053575;28;20235;-59
2023/04/13 05:43:18;;;;;;;7.63;3.23;;;;;;;8.47;59.72;63824.75;5053284;28;20210;-60
2023/04/13 05:45:44;;;;;;;7.53;3.40;;;;;;;8.44;59.40;63822.03;5035073;28;20182;-60
2023/04/13 05:48:09;;;;;;;9.43;5.47;;;;;;;8.28;59.14;63804.03;5053188;28;20247;-59
2023/04/13 05:50:35;;;;;;;5.33;3.23;;;;;;;8.30;62.79;63806.22;5052848;28;20210;-60
2023/04/13 05:53:00;;;;;;;10.80;4.50;;;;;;;8.26;62.32;63804.34;5053020;28;20209;-60
2023/04/13 05:55:26;;;;;;;10.07;3.10;;;;;;;8.27;59.72;63805.97;5047150;28;20193;-58
2023/04/13 05:57:52;;;;;;;5.57;3.03;;;;;;;8.38;57.76;63817.97;5032940;28;20603;-59
2023/04/13 06:00:20;;;;;;;8.50;3.30;;;;;;;8.51;60.08;63828.59;5032922;28;20240;-60
2023/04/13 06:02:47;;;;;;;8.80;3.80;;;;;;;8.41;57.52;63821.28;5015242;28;20190;-58
2023/04/13 06:05:14;;;;;;;7.03;2.90;;;;;;;8.35;56.96;63812.22;5014609;28;20281;-57
2023/04/13 06:07:43;;;;;;;13.13;5.10;;;;;;;8.18;60.68;63796.13;5032816;28;20260;-56
2023/04/13 06:10:10;;;;;;;15.17;7.90;;;;;;;8.01;61.09;63777.56;5032805;28;20190;-58
2023/04/13 06:12:36;;;;;;;11.27;5.63;;;;;;;7.99;61.74;63772.88;5032951;28;20194;-57
2023/04/13 06:15:02;;;;;;;14.53;8.37;;;;;;;8.14;63.53;63789.25;5014910;28;20213;-56
2023/04/13 06:17:28;;;;;;;22.60;11.43;;;;;;;8.14;60.27;63786.75;5032405;28;20240;-56
2023/04/13 06:19:53;;;;;;;10.43;5.63;;;;;;;8.17;58.53;63794.50;5032305;28;20692;-56
2023/04/13 06:22:19;;;;;;;6.50;3.00;;;;;;;7.92;57.01;63765.22;5032086;28;20664;-56
2023/04/13 06:24:44;;;;;;;6.70;3.30;;;;;;;8.22;56.14;63794.94;5031810;28;20283;-57
2023/04/13 06:27:10;;;;;;;6.77;2.77;;;;;;;8.32;54.87;63811.44;5014645;28;20609;-57
2023/04/13 06:29:37;;;;;;;6.53;2.97;;;;;;;8.21;55.25;63796.91;5032481;28;20691;-57
2023/04/13 06:32:03;;;;;;;5.30;2.60;;;;;;;8.11;53.69;63787.94;5032292;28;20190;-59
2023/04/13 06:34:29;;;;;;;7.43;3.13;;;;;;;8.00;54.90;63773.97;5032173;28;20675;-64
2023/04/13 06:36:56;;;;;;;4.17;2.83;;;;;;;8.12;54.24;63784.56;5031798;28;20269;-58
2023/04/13 06:39:22;;;;;;;6.10;3.00;;;;;;;8.21;54.08;63796.91;5032288;28;20221;-57
2023/04/13 06:41:47;;;;;;;6.20;3.10;;;;;;;8.33;53.02;63812.53;5032295;28;20186;-58
2023/04/13 06:44:13;;;;;;;5.57;2.80;;;;;;;8.27;54.22;63802.91;5032183;28;20218;-58
2023/04/13 06:46:38;;;;;;;16.60;9.40;;;;;;;8.33;56.95;63811.97;5032172;28;20210;-57
2023/04/13 06:49:04;;;;;;;12.90;7.03;;;;;;;8.37;54.82;63813.84;5032564;23;20253;-56
2023/04/13 06:51:30;;;;;;;9.70;3.93;;;;;;;8.36;53.98;63815.81;5051951;28;20603;-57
2023/04/13 06:53:55;;;;;;;7.77;3.60;;;;;;;8.59;53.84;63837.31;5040276;28;20210;-57
2023/04/13 06:56:20;;;;;;;10.97;5.77;;;;;;;8.78;57.79;63856.13;5032072;28;20278;-58
2023/04/13 06:58:46;;;;;;;7.20;4.40;;;;;;;8.76;54.32;63855.91;5032415;28;20623;-59
2023/04/13 07:01:12;;;;;;;15.90;6.50;;;;;;;8.93;56.97;63874.47;5032115;28;20182;-57
2023/04/13 07:03:37;;;;;;;6.87;3.53;;;;;;;9.21;53.58;63902.56;5032212;28;20210;-58
2023/04/13 07:06:04;;;;;;;10.57;2.70;;;;;;;9.30;50.34;63912.41;5031818;28;20218;-58
2023/04/13 07:08:31;;;;;;;9.87;3.40;;;;;;;9.25;51.49;63911.97;5031928;28;20206;-58
2023/04/13 07:10:57;;;;;;;16.40;4.67;;;;;;;9.12;52.95;63897.75;5031683;28;20194;-57
2023/04/13 07:13:24;;;;;;;8.47;5.30;;;;;;;9.19;53.58;63903.44;5031694;28;20225;-57
2023/04/13 07:15:49;;;;;;;8.33;2.80;;;;;;;9.15;49.74;63901.03;5031706;28;20186;-56
2023/04/13 07:18:15;;;;;;;21.40;10.40;;;;;;;9.25;53.11;63910.00;5014084;28;20214;-57
2023/04/13 07:20:40;;;;;;;11.93;6.47;;;;;;;9.40;54.21;63923.31;5013847;28;20719;-58
2023/04/13 07:23:07;;;;;;;6.00;2.47;;;;;;;9.51;49.79;63939.84;5031798;28;20292;-57
2023/04/13 07:25:33;;;;;;;8.33;3.30;;;;;;;9.77;50.56;63968.81;5031516;28;20194;-59
2023/04/13 07:27:59;;;;;;;7.40;3.40;;;;;;;9.87;49.83;63977.25;5031364;28;20214;-57
2023/04/13 07:30:25;;;;;;;7.57;3.77;;;;;;;9.99;50.78;63990.38;5031258;28;20591;-58
2023/04/13 07:32:52;;;;;;;8.47;2.97;;;;;;;9.97;50.08;63985.66;5031614;28;20297;-57
2023/04/13 07:35:17;;;;;;;5.67;3.20;;;;;;;10.09;50.60;64003.81;5031142;28;20217;-57
2023/04/13 07:37:43;;;;;;;7.37;3.70;;;;;;;10.15;51.54;64009.88;5031372;28;20680;-57
2023/04/13 07:40:10;;;;;;;4.77;3.53;;;;;;;10.11;50.43;64002.97;5031419;28;20240;-58
2023/04/13 07:42:35;;;;;;;9.13;3.27;;;;;;;10.27;49.25;64020.47;5030992;28;20221;-56
2023/04/13 07:45:01;;;;;;;7.80;2.80;;;;;;;10.65;48.18;64059.53;5031445;28;20676;-57
2023/04/13 07:47:27;;;;;;;16.00;4.07;;;;;;;10.59;47.50;64057.47;5030211;28;20205;-56
2023/04/13 07:49:53;;;;;;;6.73;2.43;;;;;;;10.58;49.54;64054.41;5031099;28;20206;-58
2023/04/13 07:52:19;;;;;;;6.03;3.20;;;;;;;10.90;48.89;64091.41;5031035;28;20186;-58
2023/04/13 07:54:45;;;;;;;6.87;3.03;;;;;;;10.85;47.87;64086.47;5031071;28;20245;-56
2023/04/13 07:57:10;;;;;;;7.43;3.43;;;;;;;10.88;49.39;64089.22;5030984;28;20286;-58
2023/04/13 07:59:35;;;;;;;7.77;4.40;;;;;;;10.92;48.21;64091.06;5030860;28;20563;-56
2023/04/13 08:02:01;;;;;;;10.20;3.83;;;;;;;10.92;48.62;64089.09;5013040;28;20186;-57
2023/04/13 08:04:26;;;;;;;6.47;2.97;;;;;;;11.22;47.62;64126.44;5030820;28;20210;-56
2023/04/13 08:06:52;;;;;;;7.83;2.43;;;;;;;11.32;47.53;64131.81;5030784;28;20221;-58
2023/04/13 08:09:18;;;;;;;8.30;2.97;;;;;;;11.23;46.37;64122.50;5031112;28;20222;-59
2023/04/13 08:11:43;;;;;;;9.97;2.87;;;;;;;11.30;44.25;64132.13;5030798;28;20190;-58
2023/04/13 08:14:10;;;;;;;8.50;3.03;;;;;;;11.07;45.76;64107.50;5031001;28;20515;-57
2023/04/13 08:16:37;;;;;;;9.53;2.97;;;;;;;11.11;46.40;64111.88;5030643;28;20190;-58
2023/04/13 08:19:02;;;;;;;6.20;2.80;;;;;;;11.34;47.03;64134.56;5030827;28;20214;-57
2023/04/13 08:21:28;;;;;;;14.87;4.10;;;;;;;11.55;47.36;64160.06;5030593;28;20671;-58
2023/04/13 08:23:55;;;;;;;9.00;3.07;;;;;;;11.60;45.27;64168.06;5030477;28;20218;-58
2023/04/13 08:26:20;;;;;;;4.60;2.70;;;;;;;11.98;46.12;64204.13;5030565;28;20256;-56
2023/04/13 08:28:47;;;;;;;4.83;2.73;;;;;;;12.22;45.01;64232.97;5030579;28;20202;-56
2023/04/13 08:31:13;;;;;;;15.70;6.33;;;;;;;12.14;45.25;64223.66;5030561;28;20261;-58
2023/04/13 08:33:39;;;;;;;8.17;4.97;;;;;;;12.35;46.32;64246.69;5030635;28;20217;-57
2023/04/13 08:36:06;;;;;;;8.23;2.73;;;;;;;12.54;45.08;64270.06;5030578;28;20198;-58
2023/04/13 08:38:32;;;;;;;6.10;3.13;;;;;;;12.71;43.59;64286.16;5013114;28;20297;-57
2023/04/13 08:41:00;;;;;;;4.60;2.50;;;;;;;12.75;42.45;64290.00;5030470;28;20291;-55
2023/04/13 08:43:26;;;;;;;6.37;3.53;;;;;;;12.95;47.09;64311.97;5030654;28;20245;-58
2023/04/13 08:45:52;;;;;;;7.87;3.13;;;;;;;13.29;44.64;64346.75;5012748;28;20216;-57
2023/04/13 08:48:18;;;;;;;7.57;3.80;;;;;;;13.62;43.41;64385.50;5030480;28;20297;-57
2023/04/13 08:50:44;;;;;;;8.40;3.17;;;;;;;13.73;42.28;64397.03;5030402;28;20190;-60
2023/04/13 08:53:10;;;;;;;4.80;2.57;;;;;;;13.84;42.35;64409.66;5030708;28;20214;-59
2023/04/13 08:55:44;;;;;;;7.50;2.75;;;;;;;14.13;40.18;64438.97;5030399;28;20193;-58
2023/04/13 08:58:19;;;;;;;4.70;2.50;;;;;;;14.20;40.37;64446.13;5030731;28;20214;-59
2023/04/13 09:00:48;;;;;;;13.47;7.90;;;;;;;14.26;42.06;64455.78;5033739;28;20194;-61
2023/04/13 09:03:22;;;;;;;4.90;2.70;;;;;;;14.72;43.35;64502.72;5034096;28;20220;-61
2023/04/13 09:05:55;;;;;;;6.30;2.97;;;;;;;15.03;42.93;64537.34;5033893;28;20190;-60
2023/04/13 09:08:22;;;;;;;12.63;4.03;;;;;;;15.17;40.99;64551.66;5033855;28;20272;-61
2023/04/13 09:10:47;;;;;;;5.22;3.05;;;;;;;15.25;38.71;64562.97;5033703;28;20676;-58
2023/04/13 09:13:13;;;;;;;6.15;2.60;;;;;;;15.68;40.12;64610.28;5033714;28;20301;-57
2023/04/13 09:15:39;;;;;;;6.65;2.80;;;;;;;15.95;38.86;64640.00;5033971;28;20244;-59
2023/04/13 09:18:09;;;;;;;7.57;2.72;;;;;;;16.23;38.99;64667.72;5033771;28;20668;-60
2023/04/13 09:20:35;;;;;;;6.97;2.70;;;;;;;16.44;38.93;64691.38;5033599;28;20598;-58
2023/04/13 09:23:11;;;;;;;5.38;2.60;;;;;;;16.78;39.30;64728.31;5033616;28;20222;-59
2023/04/13 09:25:37;;;;;;;8.18;3.30;;;;;;;16.77;37.85;64725.19;5033527;28;20194;-58
2023/04/13 09:28:04;;;;;;;6.90;3.53;;;;;;;16.97;37.88;64748.69;5033438;28;20799;-57
2023/04/13 09:30:30;;;;;;;8.02;2.92;;;;;;;17.24;38.81;64778.41;5033434;28;20280;-58
2023/04/13 09:33:09;;;;;;;7.80;3.60;;;;;;;17.63;36.94;64820.84;5033332;28;20726;-58
2023/04/13 09:35:35;;;;;;;5.85;2.95;;;;;;;17.81;36.17;64843.81;5033430;28;20197;-59
2023/04/13 09:38:03;;;;;;;11.50;3.35;;;;;;;18.15;37.60;64878.19;5031929;28;20594;-57
2023/04/13 09:40:30;;;;;;;5.45;3.80;;;;;;;18.36;35.69;64901.34;5033285;28;20201;-56
2023/04/13 09:42:58;;;;;;;5.03;3.08;;;;;;;18.54;35.64;64923.22;5033262;28;20589;-57
2023/04/13 09:45:32;;;;;;;10.57;3.40;;;;;;;18.66;34.99;64934.47;5031830;28;20186;-58
2023/04/13 09:48:01;;;;;;;5.15;2.50;;;;;;;18.67;34.52;64938.09;5033045;28;20240;-58
2023/04/13 09:50:27;;;;;;;7.55;3.40;;;;;;;18.39;34.44;64902.09;5032962;28;20273;-59
2023/04/13 09:53:01;;;;;;;6.22;3.00;;;;;;;18.61;36.77;64925.81;5033504;28;20221;-60
2023/04/13 09:55:28;;;;;;;6.30;2.70;;;;;;;18.96;34.54;64967.56;5033499;28;20193;-60
2023/04/13 09:57:53;;;;;;;5.43;2.72;;;;;;;19.43;34.84;65018.91;5032919;28;20213;-59
2023/04/13 10:00:19;;;;;;;5.10;2.95;;;;;;;19.53;33.44;65029.41;5033223;28;20236;-59
2023/04/13 10:02:48;;;;;;;14.90;6.63;;;;;;;19.44;33.77;65024.56;5032961;28;20193;-59
2023/04/13 10:05:14;;;;;;;11.18;6.10;;;;;;;18.92;33.94;64963.16;5033052;28;20186;-60
2023/04/13 10:07:43;;;;;;;3.85;3.25;;;;;;;19.55;32.43;65032.16;5033040;28;20222;-57
2023/04/13 10:10:09;;;;;;;8.75;3.38;;;;;;;19.68;32.41;65046.50;5032105;28;20182;-60
2023/04/13 10:12:43;;;;;;;12.57;3.65;;;;;;;19.49;32.53;65024.97;5032901;28;20198;-62
2023/04/13 10:15:25;;;;;;;4.43;2.78;;;;;;;20.02;32.77;65083.50;5032767;28;20668;-60
2023/04/13 10:18:27;;;;;;;9.25;3.25;;;;;;;20.52;33.95;65138.22;5032858;28;20302;-62
2023/04/13 10:20:56;;;;;;;7.13;3.22;;;;;;;20.72;33.44;65157.75;5032823;28;20189;-61
2023/04/13 10:23:23;;;;;;;6.75;3.38;;;;;;;20.93;32.86;65183.53;5015064;28;20217;-64
2023/04/13 10:25:59;;;;;;;8.13;3.10;;;;;;;21.16;32.97;65208.97;5032462;28;20194;-58
2023/04/13 10:28:26;;;;;;;3.47;2.75;;;;;;;20.49;31.50;65138.00;5032884;28;20691;-61
2023/04/13 10:30:53;;;;;;;7.75;2.72;;;;;;;20.76;31.65;65162.75;5032803;28;20186;-60
2023/04/13 10:33:19;;;;;;;6.70;3.17;;;;;;;20.64;31.63;65149.47;5032699;28;20218;-60
2023/04/13 10:36:00;;;;;;;4.60;2.75;;;;;;;20.46;31.08;65131.59;5032587;28;20252;-59
2023/04/13 10:38:26;;;;;;;5.78;3.10;;;;;;;20.83;31.08;65169.91;5032416;28;20210;-59
2023/04/13 10:40:52;;;;;;;7.88;3.00;;;;;;;21.26;31.28;65220.03;5032646;28;20269;-56
2023/04/13 10:43:30;;;;;;;5.72;3.45;;;;;;;21.95;32.28;65292.72;5032295;28;20240;-57
2023/04/13 10:46:12;;;;;;;4.82;2.85;;;;;;;22.49;30.48;65355.59;5032498;28;20186;-58
2023/04/13 10:48:39;;;;;;;4.63;3.10;;;;;;;22.27;29.43;65333.81;5032209;28;20715;-59
2023/04/13 10:51:05;;;;;;;4.47;3.00;;;;;;;22.71;30.67;65379.44;5032228;28;20198;-59
2023/04/13 10:53:33;;;;;;;7.70;3.70;;;;;;;22.85;29.71;65391.81;5032148;28;20202;-58
2023/04/13 10:56:00;;;;;;;7.45;3.60;;;;;;;22.16;30.54;65318.53;5032492;28;20197;-59
2023/04/13 10:58:28;;;;;;;5.75;2.88;;;;;;;22.37;28.83;65339.75;5032341;28;20276;-57
2023/04/13 11:00:54;;;;;;;6.88;3.33;;;;;;;22.26;28.99;65329.59;5032089;28;20190;-61
2023/04/13 11:03:20;;;;;;;5.43;3.22;;;;;;;22.05;28.56;65306.34;5031895;28;20289;-61
2023/04/13 11:05:46;;;;;;;8.32;3.60;;;;;;;22.02;30.19;65303.03;5014310;28;20190;-61
2023/04/13 11:08:19;;;;;;;7.60;3.67;;;;;;;21.92;29.48;65291.97;5031821;28;20250;-61
2023/04/13 11:10:55;;;;;;;7.93;3.10;;;;;;;21.91;29.59;65291.41;5031732;28;20186;-58
2023/04/13 11:13:23;;;;;;;6.32;3.38;;;;;;;22.13;29.15;65313.19;5032087;28;20214;-59
2023/04/13 11:15:49;;;;;;;7.50;3.90;;;;;;;22.05;29.92;65306.91;5031797;28;20190;-58
2023/04/13 11:18:25;;;;;;;8.48;3.85;;;;;;;21.43;30.29;65236.28;5032009;28;20217;-61
2023/04/13 11:20:50;;;;;;;5.22;3.25;;;;;;;21.56;30.14;65250.66;5031863;28;20277;-61
2023/04/13 11:23:17;;;;;;;7.65;2.70;;;;;;;22.14;30.31;65316.31;5031774;28;20602;-61
2023/04/13 11:26:00;;;;;;;8.82;3.40;;;;;;;22.45;30.57;65351.19;5032053;28;20568;-58
2023/04/13 11:28:52;;;;;;;7.72;3.00;;;;;;;22.05;30.65;65306.34;5031685;28;20213;-59
2023/04/13 11:31:17;;;;;;;4.93;3.20;;;;;;;22.02;29.43;65300.47;5027682;28;20205;-58
2023/04/13 11:33:47;;;;;;;6.35;3.20;;;;;;;22.65;28.72;65369.66;5032117;28;20217;-57
2023/04/13 11:36:18;;;;;;;7.40;3.42;;;;;;;23.03;28.76;65414.88;5031481;28;20201;-57
2023/04/13 11:38:46;;;;;;;5.93;3.17;;;;;;;23.10;28.17;65422.06;5031863;28;20205;-61
2023/04/13 11:41:13;;;;;;;6.47;2.88;;;;;;;23.08;29.12;65419.84;5013804;28;20210;-59